Time;durP1;ratioP1;P1;durP2;ratioP2;P2;SDS_P1;SDS_P2;PMS_P1;PMS_P2;Temp;Humidity;BMP_temperature;BMP_pressure;BME280_temperature;BME280_humidity;BME280_pressure;Samples;Min_cycle;Max_cycle;Signal;HPM_P1;HPM_P2
2022/12/13 00:02:18;;;;;;;35.65;20.13;;;4.00;56.90;;;;;;5027190;28;20106;-74
2022/12/13 00:05:03;;;;;;;35.30;21.17;;;4.00;56.90;;;;;;5029722;28;20480;-73
2022/12/13 00:07:47;;;;;;;30.40;20.38;;;4.00;56.90;;;;;;5025353;28;20110;-74
2022/12/13 00:10:32;;;;;;;32.28;19.80;;;4.00;56.90;;;;;;5029137;28;20511;-74
2022/12/13 00:13:16;;;;;;;33.35;19.33;;;4.00;56.80;;;;;;5028752;28;20465;-74
2022/12/13 00:16:05;;;;;;;33.78;20.08;;;4.00;56.90;;;;;;5032781;28;20044;-74
2022/12/13 00:18:54;;;;;;;35.17;19.98;;;4.10;57.00;;;;;;5030987;28;20091;-73
2022/12/13 00:21:39;;;;;;;33.20;20.63;;;4.00;56.90;;;;;;5040387;28;20139;-74
2022/12/13 00:24:23;;;;;;;35.70;19.60;;;4.10;57.10;;;;;;5034031;28;20056;-74
2022/12/13 00:27:08;;;;;;;35.65;21.73;;;4.10;57.10;;;;;;5032220;28;20041;-74
2022/12/13 00:29:53;;;;;;;33.85;19.67;;;4.10;57.10;;;;;;5016796;28;20099;-74
2022/12/13 00:32:37;;;;;;;36.72;21.85;;;4.10;57.10;;;;;;5019332;28;20055;-74
2022/12/13 00:35:22;;;;;;;31.60;20.67;;;4.10;57.10;;;;;;5008359;28;20063;-74
2022/12/13 00:38:09;;;;;;;37.50;22.25;;;4.10;57.10;;;;;;5011636;28;20035;-74
2022/12/13 00:40:53;;;;;;;32.42;19.55;;;4.10;57.10;;;;;;5020176;28;20099;-74
2022/12/13 00:43:38;;;;;;;32.30;20.95;;;4.10;57.10;;;;;;5022012;28;20051;-74
2022/12/13 00:46:24;;;;;;;32.88;20.70;;;4.10;57.10;;;;;;5011647;28;20466;-74
2022/12/13 00:49:09;;;;;;;32.42;20.35;;;4.10;57.10;;;;;;5014149;28;20135;-74
2022/12/13 00:51:53;;;;;;;33.78;21.80;;;4.10;57.10;;;;;;5020758;28;20100;-74
2022/12/13 00:54:38;;;;;;;35.95;21.20;;;4.10;57.20;;;;;;5008169;28;20193;-74
2022/12/13 00:57:23;;;;;;;35.47;22.30;;;4.10;57.20;;;;;;5022589;28;20040;-74
2022/12/13 01:00:08;;;;;;;38.88;23.35;;;4.10;57.20;;;;;;5019362;28;20048;-74
2022/12/13 01:02:53;;;;;;;38.50;22.95;;;4.10;57.20;;;;;;5016522;28;20041;-74
2022/12/13 01:05:37;;;;;;;34.45;20.83;;;4.10;57.20;;;;;;5015963;28;20064;-75
2022/12/13 01:08:22;;;;;;;38.03;21.75;;;4.10;57.20;;;;;;5028135;28;20049;-74
2022/12/13 01:11:07;;;;;;;33.30;21.38;;;4.10;57.20;;;;;;5012737;28;20120;-75
2022/12/13 01:13:52;;;;;;;30.25;19.83;;;4.10;57.20;;;;;;5000935;28;20124;-74
2022/12/13 01:16:37;;;;;;;32.90;21.08;;;4.10;57.80;;;;;;5023720;28;20068;-75
2022/12/13 01:19:23;;;;;;;31.58;20.85;;;4.10;57.30;;;;;;5024456;28;20531;-74
2022/12/13 01:22:10;;;;;;;37.53;23.20;;;4.10;57.30;;;;;;5014983;28;20574;-74
2022/12/13 01:24:54;;;;;;;33.55;22.20;;;4.10;57.30;;;;;;5025456;28;20088;-75
2022/12/13 01:27:39;;;;;;;31.95;20.90;;;4.10;57.30;;;;;;5010491;28;20053;-74
2022/12/13 01:30:25;;;;;;;32.72;22.02;;;4.10;57.30;;;;;;5014155;28;20508;-74
2022/12/13 01:33:09;;;;;;;34.38;21.50;;;4.10;57.30;;;;;;5005183;28;20530;-74
2022/12/13 01:35:54;;;;;;;36.60;22.08;;;4.10;57.30;;;;;;5025962;28;20094;-75
2022/12/13 01:38:38;;;;;;;37.40;23.58;;;4.20;57.50;;;;;;5010236;28;20098;-74
2022/12/13 01:41:23;;;;;;;34.80;21.92;;;4.10;57.30;;;;;;5018626;28;20088;-74
2022/12/13 01:44:45;;;;;;;35.92;22.25;;;4.20;57.50;;;;;;5008527;28;20084;-74
2022/12/13 01:47:49;;;;;;;33.75;20.95;;;4.20;57.50;;;;;;5022004;28;20072;-74
2022/12/13 01:50:35;;;;;;;;;;;4.20;57.50;;;;;;5022128;28;20051;-74
2022/12/13 01:53:25;;;;;;;33.97;21.38;;;4.20;57.50;;;;;;5023558;28;19916;-75
2022/12/13 01:56:22;;;;;;;31.73;20.42;;;4.20;57.40;;;;;;5012729;28;20095;-74
2022/12/13 01:59:09;;;;;;;32.28;21.90;;;4.20;57.40;;;;;;5023032;28;20064;-75
2022/12/13 02:01:53;;;;;;;31.83;20.63;;;4.20;57.40;;;;;;5035304;28;20415;-75
2022/12/13 02:04:55;;;;;;;32.67;21.10;;;4.20;57.50;;;;;;5009858;28;20103;-76
2022/12/13 02:07:41;;;;;;;33.40;20.30;;;4.20;57.50;;;;;;5016006;28;20060;-76
2022/12/13 02:10:27;;;;;;;30.50;19.90;;;4.20;57.50;;;;;;5015146;28;20128;-76
2022/12/13 02:13:12;;;;;;;31.42;20.30;;;4.20;57.50;;;;;;5013831;28;20045;-75
2022/12/13 02:16:14;;;;;;;30.92;19.73;;;4.20;57.50;;;;;;5019726;28;20056;-75
2022/12/13 02:19:20;;;;;;;31.75;20.35;;;4.20;57.50;;;;;;5015263;28;20045;-76
2022/12/13 02:22:13;;;;;;;32.45;21.65;;;4.20;57.60;;;;;;5022849;28;20416;-75
2022/12/13 02:25:48;;;;;;;28.60;19.45;;;4.10;57.40;;;;;;5016658;28;20076;-75
2022/12/13 02:29:15;;;;;;;30.42;19.35;;;4.10;57.50;;;;;;4996069;28;20322;-76
2022/12/13 02:32:05;;;;;;;30.10;19.80;;;4.00;57.30;;;;;;5016659;28;20075;-76
2022/12/13 02:34:57;;;;;;;30.98;20.02;;;4.00;57.40;;;;;;5015878;28;20044;-75
2022/12/13 02:37:48;;;;;;;29.75;20.15;;;4.00;57.40;;;;;;5024894;28;20103;-76
2022/12/13 02:40:36;;;;;;;31.70;20.58;;;4.00;57.40;;;;;;5024485;28;20229;-76
2022/12/13 02:43:24;;;;;;;29.70;19.70;;;4.00;57.50;;;;;;5018163;28;20068;-76
2022/12/13 02:46:11;;;;;;;28.88;19.80;;;3.90;57.40;;;;;;5024254;28;20107;-76
2022/12/13 02:48:58;;;;;;;29.48;20.20;;;3.90;57.40;;;;;;5024704;28;20053;-75
2022/12/13 02:51:44;;;;;;;28.30;19.75;;;3.90;57.40;;;;;;5027685;28;20047;-75
2022/12/13 02:54:29;;;;;;;32.47;21.38;;;3.90;57.40;;;;;;5016492;28;20041;-75
2022/12/13 02:57:38;;;;;;;30.30;20.85;;;3.90;57.40;;;;;;5019114;28;20043;-75
2022/12/13 03:00:49;;;;;;;32.28;22.10;;;3.90;57.40;;;;;;5026211;28;20405;-75
2022/12/13 03:03:42;;;;;;;29.95;19.50;;;3.90;57.40;;;;;;5008800;28;20099;-75
2022/12/13 03:06:52;;;;;;;30.65;21.85;;;3.90;57.50;;;;;;5021183;28;20223;-75
2022/12/13 03:09:49;;;;;;;29.42;19.65;;;3.90;57.50;;;;;;5026459;28;20049;-75
2022/12/13 03:15:58;;;;;;;28.85;19.40;;;3.90;57.50;;;;;;5018973;28;20040;-75
2022/12/13 03:18:44;;;;;;;28.33;19.85;;;3.80;57.40;;;;;;5015148;28;20044;-75
2022/12/13 03:21:29;;;;;;;30.13;19.85;;;3.80;57.40;;;;;;5027757;28;20053;-75
2022/12/13 03:24:17;;;;;;;31.02;20.20;;;3.80;57.40;;;;;;5013290;28;20060;-75
2022/12/13 03:27:01;;;;;;;29.17;20.13;;;3.80;57.50;;;;;;5027680;28;20112;-76
2022/12/13 03:29:46;;;;;;;29.55;20.38;;;3.70;57.30;;;;;;5025520;28;20040;-75
2022/12/13 03:32:31;;;;;;;31.10;20.67;;;3.70;57.30;;;;;;5027551;28;20052;-75
2022/12/13 03:35:15;;;;;;;29.70;20.88;;;3.70;57.40;;;;;;5027442;28;20151;-76
2022/12/13 03:38:00;;;;;;;27.88;20.20;;;3.70;57.40;;;;;;5020216;28;20041;-76
2022/12/13 03:40:45;;;;;;;29.23;21.02;;;3.70;57.40;;;;;;5023690;28;20424;-76
2022/12/13 03:43:30;;;;;;;28.42;20.02;;;3.70;57.50;;;;;;5020625;28;20040;-75
2022/12/13 03:46:14;;;;;;;30.92;20.60;;;3.70;57.50;;;;;;5013471;28;20164;-76
2022/12/13 03:48:58;;;;;;;28.52;20.30;;;3.70;57.80;;;;;;5022630;28;20547;-75
2022/12/13 03:51:44;;;;;;;30.15;20.50;;;3.60;57.30;;;;;;5026457;28;20115;-75
2022/12/13 03:54:28;;;;;;;30.55;20.63;;;3.60;57.40;;;;;;5016908;28;20040;-75
2022/12/13 03:57:14;;;;;;;29.73;20.88;;;3.60;57.40;;;;;;5024725;28;20053;-75
2022/12/13 03:59:58;;;;;;;26.23;19.85;;;3.60;57.50;;;;;;5009773;28;20462;-75
2022/12/13 04:02:43;;;;;;;28.23;20.27;;;3.60;57.50;;;;;;5007219;28;20583;-76
2022/12/13 04:05:29;;;;;;;27.63;19.45;;;3.60;57.50;;;;;;5025487;28;20044;-76
2022/12/13 04:08:13;;;;;;;30.15;20.42;;;3.60;57.50;;;;;;5021513;28;20353;-76
2022/12/13 04:10:58;;;;;;;27.05;19.92;;;3.60;57.50;;;;;;5027098;28;20053;-76
2022/12/13 04:13:42;;;;;;;27.92;19.92;;;3.50;57.30;;;;;;5017215;28;20041;-76
2022/12/13 04:16:27;;;;;;;29.10;20.25;;;3.50;57.30;;;;;;5026361;28;20045;-75
2022/12/13 04:19:11;;;;;;;30.85;20.95;;;3.50;57.40;;;;;;5017627;28;20060;-75
2022/12/13 04:21:56;;;;;;;29.10;21.00;;;3.50;57.40;;;;;;5013463;28;20099;-75
2022/12/13 04:24:40;;;;;;;28.60;19.75;;;3.50;57.40;;;;;;5018560;28;20052;-75
2022/12/13 04:27:25;;;;;;;27.63;19.67;;;3.40;57.20;;;;;;5027266;28;20572;-75
2022/12/13 04:30:10;;;;;;;29.00;20.60;;;3.40;57.30;;;;;;4994898;28;20115;-76
2022/12/13 04:32:55;;;;;;;27.30;20.30;;;3.40;57.30;;;;;;5023922;28;20033;-76
2022/12/13 04:35:40;;;;;;;29.00;20.55;;;3.40;57.30;;;;;;5026513;28;20116;-76
2022/12/13 04:38:24;;;;;;;28.88;20.38;;;3.40;57.30;;;;;;5019800;28;20148;-76
2022/12/13 04:41:18;;;;;;;28.75;20.23;;;3.40;57.90;;;;;;5019066;28;20064;-76
2022/12/13 04:44:04;;;;;;;26.60;18.85;;;3.30;57.20;;;;;;5021499;28;20156;-76
2022/12/13 04:46:49;;;;;;;32.53;21.13;;;3.30;57.20;;;;;;5023220;28;20098;-75
2022/12/13 04:49:34;;;;;;;28.60;21.33;;;3.30;57.20;;;;;;5014488;28;20043;-76
2022/12/13 04:52:18;;;;;;;28.00;20.63;;;3.30;57.30;;;;;;5018557;28;20044;-76
2022/12/13 04:55:03;;;;;;;26.50;19.90;;;3.30;57.30;;;;;;5029375;28;20542;-76
2022/12/13 04:57:48;;;;;;;27.92;20.52;;;3.30;57.30;;;;;;5029570;28;20509;-76
2022/12/13 05:00:32;;;;;;;30.42;21.40;;;3.30;57.40;;;;;;5026545;28;20048;-76
2022/12/13 05:03:17;;;;;;;27.65;20.20;;;3.20;57.20;;;;;;5018985;28;20088;-76
2022/12/13 05:06:07;;;;;;;27.75;20.38;;;3.30;57.40;;;;;;5021498;28;20139;-76
2022/12/13 05:08:51;;;;;;;27.38;20.58;;;3.20;57.30;;;;;;5028776;28;20048;-75
2022/12/13 05:11:36;;;;;;;30.50;21.45;;;3.20;57.30;;;;;;5020404;28;20045;-76
2022/12/13 05:14:21;;;;;;;29.27;21.27;;;3.20;57.30;;;;;;5022244;28;20507;-76
2022/12/13 05:17:05;;;;;;;28.27;20.02;;;3.20;57.30;;;;;;5013129;28;20400;-76
2022/12/13 05:19:50;;;;;;;27.33;20.30;;;3.20;57.30;;;;;;5023631;28;20049;-76
2022/12/13 05:22:36;;;;;;;27.92;20.30;;;3.20;57.30;;;;;;5030783;28;20044;-76
2022/12/13 05:25:21;;;;;;;30.20;21.10;;;3.20;57.30;;;;;;5006290;28;20092;-76
2022/12/13 05:28:05;;;;;;;29.90;21.48;;;3.20;57.40;;;;;;5026915;28;20032;-76
2022/12/13 05:30:50;;;;;;;26.33;19.27;;;3.20;57.40;;;;;;5022850;28;20124;-76
2022/12/13 05:33:34;;;;;;;28.17;19.83;;;3.10;57.20;;;;;;5028782;28;20440;-76
2022/12/13 05:36:24;;;;;;;29.58;22.20;;;3.10;57.20;;;;;;5029583;28;20090;-76
2022/12/13 05:39:08;;;;;;;30.73;21.50;;;3.10;57.20;;;;;;5029456;28;20039;-74
2022/12/13 05:41:54;;;;;;;25.75;19.27;;;3.10;57.20;;;;;;5008068;28;21016;-74
2022/12/13 05:44:38;;;;;;;28.75;20.67;;;3.20;57.40;;;;;;5027825;28;20528;-74
2022/12/13 05:47:23;;;;;;;28.90;20.73;;;3.10;57.30;;;;;;5022360;28;20064;-75
2022/12/13 05:50:08;;;;;;;28.02;19.88;;;3.20;57.50;;;;;;5022384;28;20043;-74
2022/12/13 05:52:52;;;;;;;30.08;20.38;;;3.20;57.50;;;;;;5006650;28;20087;-74
2022/12/13 05:55:37;;;;;;;26.95;19.98;;;3.10;57.30;;;;;;5028268;28;20040;-74
2022/12/13 05:58:22;;;;;;;26.67;19.25;;;3.10;57.90;;;;;;5023778;28;20044;-74
2022/12/13 06:01:11;;;;;;;28.17;20.17;;;3.10;57.40;;;;;;5025119;28;20520;-74
2022/12/13 06:03:56;;;;;;;29.38;22.30;;;3.10;57.40;;;;;;5025215;28;20044;-74
2022/12/13 06:06:40;;;;;;;27.25;19.35;;;3.10;57.40;;;;;;5010179;28;20507;-75
2022/12/13 06:09:26;;;;;;;28.98;20.63;;;3.10;57.40;;;;;;5023947;28;20037;-75
2022/12/13 06:12:10;;;;;;;29.35;20.38;;;3.10;57.40;;;;;;5025625;28;20235;-74
2022/12/13 06:14:55;;;;;;;27.60;20.40;;;3.10;57.40;;;;;;5015088;28;20041;-73
2022/12/13 06:17:39;;;;;;;25.77;18.35;;;3.20;57.60;;;;;;5013268;28;20044;-73
2022/12/13 06:20:26;;;;;;;26.27;18.80;;;3.10;57.40;;;;;;5016309;28;20091;-74
2022/12/13 06:23:10;;;;;;;31.73;21.58;;;3.10;57.40;;;;;;5000208;28;20052;-76
2022/12/13 06:25:55;;;;;;;26.23;19.13;;;3.10;57.40;;;;;;5024872;28;20053;-73
2022/12/13 06:28:39;;;;;;;25.90;19.80;;;3.10;57.40;;;;;;5010059;28;20573;-74
2022/12/13 06:31:24;;;;;;;28.40;19.65;;;3.10;57.40;;;;;;5008899;28;20109;-74
2022/12/13 06:34:09;;;;;;;26.13;19.17;;;3.20;57.60;;;;;;5004454;28;20045;-74
2022/12/13 06:36:53;;;;;;;27.52;20.20;;;3.20;57.60;;;;;;5024884;28;20079;-73
2022/12/13 06:39:39;;;;;;;27.75;19.63;;;3.10;57.40;;;;;;5023971;28;20098;-74
2022/12/13 06:42:23;;;;;;;27.13;20.55;;;3.10;57.40;;;;;;5014125;28;20044;-74
2022/12/13 06:45:08;;;;;;;28.05;20.50;;;3.10;57.40;;;;;;5011134;28;20533;-74
2022/12/13 06:47:53;;;;;;;26.35;20.83;;;3.10;57.40;;;;;;5012566;28;20158;-75
2022/12/13 06:50:37;;;;;;;27.02;20.67;;;3.10;57.40;;;;;;5024213;28;20504;-73
2022/12/13 06:53:23;;;;;;;27.90;20.25;;;3.10;57.50;;;;;;5023795;28;20040;-74
2022/12/13 06:56:11;;;;;;;28.80;20.65;;;3.10;57.40;;;;;;5010574;28;20587;-74
2022/12/13 06:58:56;;;;;;;28.00;20.08;;;3.10;57.50;;;;;;5022715;28;20044;-75
2022/12/13 07:01:41;;;;;;;27.63;19.67;;;3.20;57.70;;;;;;5016368;28;20439;-77
2022/12/13 07:04:26;;;;;;;28.38;19.08;;;3.10;57.50;;;;;;5016209;28;20091;-78
2022/12/13 07:07:10;;;;;;;31.45;20.65;;;3.20;57.80;;;;;;5021228;28;20853;-75
2022/12/13 07:09:55;;;;;;;29.10;19.88;;;3.20;58.00;;;;;;5021042;28;20043;-75
2022/12/13 07:12:39;;;;;;;29.33;20.85;;;3.30;58.30;;;;;;5022083;28;20048;-76
2022/12/13 07:15:24;;;;;;;31.00;21.42;;;3.40;58.40;;;;;;5014869;28;20048;-74
2022/12/13 07:18:08;;;;;;;28.05;19.42;;;3.40;58.40;;;;;;5014513;28;20060;-74
2022/12/13 07:20:53;;;;;;;28.98;20.33;;;3.40;58.40;;;;;;5023082;28;20551;-75
2022/12/13 07:23:39;;;;;;;28.63;19.67;;;3.40;58.40;;;;;;5023706;28;20045;-76
2022/12/13 07:26:24;;;;;;;29.08;20.38;;;3.40;58.40;;;;;;5014185;28;20171;-75
2022/12/13 07:29:08;;;;;;;31.75;20.77;;;3.40;58.50;;;;;;5021157;28;20103;-76
2022/12/13 07:31:53;;;;;;;29.63;21.20;;;3.40;58.50;;;;;;5023231;28;20095;-77
2022/12/13 07:34:37;;;;;;;28.83;20.58;;;3.40;58.50;;;;;;5013080;28;20064;-76
2022/12/13 07:37:22;;;;;;;30.80;22.02;;;3.40;58.60;;;;;;5017671;28;20116;-76
2022/12/13 07:40:07;;;;;;;29.20;21.88;;;3.30;58.40;;;;;;5001446;28;20126;-76
2022/12/13 07:42:53;;;;;;;32.20;22.10;;;3.30;58.50;;;;;;5015011;28;20048;-76
2022/12/13 07:45:38;;;;;;;29.33;21.45;;;3.30;58.50;;;;;;5020895;28;20056;-76
2022/12/13 07:48:22;;;;;;;31.65;21.85;;;3.30;58.50;;;;;;5019212;28;20119;-76
2022/12/13 07:51:12;;;;;;;28.65;20.98;;;3.20;58.30;;;;;;5013407;28;20114;-75
2022/12/13 07:53:57;;;;;;;30.38;21.95;;;3.20;58.40;;;;;;5020493;28;20107;-76
2022/12/13 07:56:42;;;;;;;29.55;21.17;;;3.20;58.40;;;;;;5009196;28;20131;-76
2022/12/13 07:59:26;;;;;;;31.75;24.00;;;3.20;58.40;;;;;;5022037;28;20076;-76
2022/12/13 08:02:12;;;;;;;30.17;21.73;;;3.20;58.40;;;;;;5012428;28;20045;-75
2022/12/13 08:04:57;;;;;;;30.95;22.52;;;3.20;58.40;;;;;;5012411;28;20048;-75
2022/12/13 08:07:41;;;;;;;31.17;21.30;;;3.20;58.50;;;;;;5023240;28;20079;-75
2022/12/13 08:10:26;;;;;;;32.85;22.60;;;3.10;58.30;;;;;;5020228;28;20071;-76
2022/12/13 08:13:11;;;;;;;29.73;21.55;;;3.20;58.50;;;;;;5022078;28;20035;-76
2022/12/13 08:16:00;;;;;;;29.77;21.73;;;3.10;58.30;;;;;;5021872;28;20064;-77
2022/12/13 08:18:46;;;;;;;32.80;22.75;;;3.10;58.30;;;;;;5004024;28;20127;-77
2022/12/13 08:21:39;;;;;;;30.33;21.67;;;3.10;58.30;;;;;;5022023;28;20095;-76
2022/12/13 08:24:25;;;;;;;28.58;21.17;;;3.20;58.50;;;;;;5017571;28;20044;-77
2022/12/13 08:27:11;;;;;;;35.38;24.95;;;3.10;58.30;;;;;;5022463;28;20040;-77
2022/12/13 08:29:56;;;;;;;32.58;22.50;;;3.20;58.40;;;;;;5019557;28;20354;-76
2022/12/13 08:32:40;;;;;;;34.58;23.00;;;3.20;58.40;;;;;;5004374;28;20127;-76
2022/12/13 08:35:28;;;;;;;31.33;22.58;;;3.20;58.30;;;;;;5007735;28;20257;-76
2022/12/13 08:38:13;;;;;;;34.67;22.58;;;3.20;58.30;;;;;;5007478;28;20143;-76
2022/12/13 08:40:58;;;;;;;29.67;21.85;;;3.20;58.30;;;;;;5022773;28;20168;-76
2022/12/13 08:43:43;;;;;;;34.80;22.88;;;3.20;58.70;;;;;;5006898;28;20048;-76
2022/12/13 08:46:27;;;;;;;30.73;22.15;;;3.20;58.20;;;;;;5012549;28;20420;-76
2022/12/13 08:49:12;;;;;;;31.88;21.75;;;3.20;58.20;;;;;;5021433;28;20128;-76
2022/12/13 08:51:57;;;;;;;31.08;22.35;;;3.20;58.20;;;;;;5018296;28;20510;-76
2022/12/13 08:54:43;;;;;;;33.70;23.63;;;3.30;58.30;;;;;;5017797;28;20409;-76
2022/12/13 08:57:27;;;;;;;32.70;23.77;;;3.30;58.30;;;;;;5021497;28;20094;-77
2022/12/13 09:00:18;;;;;;;28.20;21.15;;;3.30;58.20;;;;;;5019735;28;20044;-75
2022/12/13 09:03:06;;;;;;;30.00;21.80;;;3.40;58.30;;;;;;5007940;28;20096;-75
2022/12/13 09:05:50;;;;;;;32.05;22.25;;;3.40;58.30;;;;;;5000505;28;20051;-75
2022/12/13 09:08:36;;;;;;;32.15;23.17;;;3.40;58.20;;;;;;5019931;28;20036;-75
2022/12/13 09:11:20;;;;;;;32.53;22.13;;;3.50;58.30;;;;;;5017196;28;20044;-76
2022/12/13 09:14:05;;;;;;;33.80;21.83;;;3.40;58.10;;;;;;5021182;28;20558;-76
2022/12/13 09:16:49;;;;;;;30.67;22.33;;;3.50;58.20;;;;;;5017926;28;20056;-76
2022/12/13 09:19:34;;;;;;;31.10;22.27;;;3.50;58.10;;;;;;5018011;28;20524;-79
2022/12/13 09:22:20;;;;;;;33.70;23.73;;;3.50;58.00;;;;;;5021358;28;20117;-76
2022/12/13 09:25:05;;;;;;;31.98;23.42;;;3.60;58.10;;;;;;5016252;28;20068;-74
2022/12/13 09:27:49;;;;;;;31.60;22.95;;;3.60;58.00;;;;;;5021669;28;20037;-74
2022/12/13 09:30:36;;;;;;;34.10;23.85;;;3.70;58.20;;;;;;5013815;28;20045;-75
2022/12/13 09:33:21;;;;;;;39.10;26.38;;;3.70;58.10;;;;;;5021990;28;20044;-74
2022/12/13 09:36:07;;;;;;;35.28;25.92;;;3.80;58.20;;;;;;5021287;28;20099;-76
2022/12/13 09:38:53;;;;;;;37.90;25.90;;;3.80;58.00;;;;;;5025133;28;20080;-75
2022/12/13 09:41:41;;;;;;;35.15;24.45;;;3.90;58.10;;;;;;5020361;28;20519;-75
2022/12/13 09:44:33;;;;;;;33.83;24.50;;;4.00;58.20;;;;;;5024580;28;20487;-75
2022/12/13 09:47:32;;;;;;;33.42;24.30;;;4.00;58.10;;;;;;5007495;28;20111;-76
2022/12/13 09:50:27;;;;;;;32.13;23.40;;;4.00;57.90;;;;;;5010970;28;20091;-75
2022/12/13 09:53:15;;;;;;;30.80;23.48;;;4.10;57.90;;;;;;5021954;28;20067;-76
2022/12/13 09:56:00;;;;;;;32.28;23.33;;;4.20;58.00;;;;;;5023927;28;20095;-76
2022/12/13 09:58:48;;;;;;;30.35;22.02;;;4.20;57.90;;;;;;5009732;28;20044;-75
2022/12/13 10:01:32;;;;;;;28.92;21.88;;;4.30;57.90;;;;;;5025220;28;20492;-75
2022/12/13 10:04:17;;;;;;;30.58;22.65;;;4.40;58.00;;;;;;5019708;28;20048;-76
2022/12/13 10:07:17;;;;;;;27.58;19.98;;;4.40;57.90;;;;;;5010199;28;20056;-75
2022/12/13 10:10:01;;;;;;;28.42;20.90;;;4.50;57.90;;;;;;5023966;28;20041;-76
2022/12/13 10:12:55;;;;;;;27.02;20.65;;;4.50;58.00;;;;;;5023315;28;20055;-76
2022/12/13 10:15:43;;;;;;;28.55;20.50;;;4.60;57.90;;;;;;5013207;28;20550;-76
2022/12/13 10:18:37;;;;;;;29.20;20.98;;;4.70;57.90;;;;;;5015331;28;20075;-76
2022/12/13 10:21:27;;;;;;;27.83;19.17;;;4.80;57.90;;;;;;5022788;28;20037;-75
2022/12/13 10:24:24;;;;;;;26.85;20.30;;;4.80;57.80;;;;;;5020200;28;20073;-78
2022/12/13 10:27:33;;;;;;;30.60;21.38;;;4.90;57.80;;;;;;5015671;28;20099;-80
2022/12/13 10:30:21;;;;;;;25.58;20.50;;;4.90;57.60;;;;;;5017573;28;20600;-75
2022/12/13 10:33:05;;;;;;;26.30;19.55;;;5.00;57.50;;;;;;5014740;28;20086;-77
2022/12/13 10:36:08;;;;;;;28.70;19.55;;;5.10;57.60;;;;;;5028768;28;20044;-74
2022/12/13 10:38:52;;;;;;;28.53;20.33;;;5.20;57.60;;;;;;5019902;28;20164;-74
2022/12/13 10:41:38;;;;;;;25.88;19.52;;;5.20;57.50;;;;;;5009758;28;20060;-74
2022/12/13 10:44:24;;;;;;;27.48;19.60;;;5.30;57.50;;;;;;5007815;28;20107;-74
2022/12/13 10:47:22;;;;;;;28.15;19.90;;;5.30;57.40;;;;;;5022193;28;20119;-74
2022/12/13 10:50:22;;;;;;;24.63;19.00;;;5.40;57.50;;;;;;5010196;28;20044;-75
2022/12/13 10:53:16;;;;;;;29.98;18.98;;;5.50;57.50;;;;;;5000466;28;20543;-75
2022/12/13 10:56:02;;;;;;;24.15;18.20;;;5.50;57.30;;;;;;5012864;28;20064;-75
2022/12/13 10:58:50;;;;;;;26.77;19.42;;;5.60;57.40;;;;;;5008735;28;20099;-75
2022/12/13 11:01:35;;;;;;;28.52;20.08;;;5.60;57.30;;;;;;5017571;28;20048;-74
2022/12/13 11:04:28;;;;;;;23.00;17.33;;;5.60;57.20;;;;;;5024437;28;20133;-75
2022/12/13 11:07:26;;;;;;;35.70;18.25;;;5.70;57.20;;;;;;5011156;28;20138;-75
2022/12/13 11:10:25;;;;;;;28.10;18.52;;;5.80;57.80;;;;;;5018291;28;20547;-77
2022/12/13 11:13:23;;;;;;;22.83;17.58;;;5.80;57.10;;;;;;5022905;28;20128;-77
2022/12/13 11:16:29;;;;;;;25.42;18.13;;;5.90;57.20;;;;;;5020115;28;20857;-79
2022/12/13 11:19:23;;;;;;;25.55;17.92;;;5.90;57.00;;;;;;5016100;28;20047;-77
2022/12/13 11:22:17;;;;;;;34.35;18.95;;;6.00;57.10;;;;;;5014264;28;20065;-74
2022/12/13 11:25:14;;;;;;;24.40;17.98;;;6.00;56.90;;;;;;5022440;28;20251;-75
2022/12/13 11:28:10;;;;;;;25.83;18.80;;;6.10;57.00;;;;;;5005742;28;20235;-75
2022/12/13 11:31:12;;;;;;;23.30;17.17;;;6.20;57.10;;;;;;5017752;28;20091;-75
2022/12/13 11:34:03;;;;;;;26.13;17.63;;;6.20;56.90;;;;;;5016691;28;20064;-75
2022/12/13 11:36:47;;;;;;;23.67;18.13;;;6.30;57.00;;;;;;5014063;28;20564;-75
2022/12/13 11:39:51;;;;;;;23.42;17.27;;;6.30;56.90;;;;;;5023176;28;20044;-75
2022/12/13 11:42:38;;;;;;;20.23;17.10;;;6.30;56.70;;;;;;5022050;28;20080;-74
2022/12/13 11:45:28;;;;;;;21.63;17.35;;;6.40;56.80;;;;;;5011580;28;20102;-75
2022/12/13 11:48:20;;;;;;;22.35;16.40;;;6.40;56.80;;;;;;5020555;28;20393;-74
2022/12/13 11:51:08;;;;;;;21.35;17.10;;;6.40;56.60;;;;;;5017736;28;20044;-75
2022/12/13 11:54:12;;;;;;;20.42;15.65;;;6.40;56.50;;;;;;5015272;28;20087;-75
2022/12/13 11:57:03;;;;;;;21.85;15.77;;;6.50;56.50;;;;;;5009554;28;20488;-74
2022/12/13 11:59:56;;;;;;;24.17;18.00;;;6.50;56.50;;;;;;5022198;28;20087;-74
2022/12/13 12:02:48;;;;;;;20.63;16.50;;;6.60;56.60;;;;;;5022030;28;20067;-74
2022/12/13 12:05:44;;;;;;;23.33;16.38;;;6.60;56.40;;;;;;5019709;28;20412;-75
2022/12/13 12:08:43;;;;;;;24.33;17.50;;;6.60;56.30;;;;;;5022080;28;20048;-75
2022/12/13 12:11:52;;;;;;;21.83;16.05;;;6.70;56.40;;;;;;5022666;28;20517;-74
2022/12/13 12:14:53;;;;;;;20.38;16.70;;;6.70;56.20;;;;;;5021692;28;20040;-75
2022/12/13 12:17:37;;;;;;;21.15;16.48;;;6.80;56.80;;;;;;5024361;28;20441;-75
2022/12/13 12:20:59;;;;;;;19.35;15.45;;;6.90;56.30;;;;;;5038338;28;20039;-75
2022/12/13 12:23:52;;;;;;;19.48;14.32;;;6.90;55.90;;;;;;5015364;28;20203;-76
2022/12/13 12:27:23;;;;;;;18.33;14.68;;;7.10;56.30;;;;;;5036054;28;20087;-75
2022/12/13 12:30:08;;;;;;;20.10;14.90;;;7.20;57.30;;;;;;5037241;28;20056;-76
2022/12/13 12:33:05;;;;;;;18.80;14.05;;;7.40;56.90;;;;;;5028644;28;20134;-76
2022/12/13 12:36:03;;;;;;;20.85;16.20;;;7.50;56.80;;;;;;5024201;28;20071;-75
2022/12/13 12:39:20;;;;;;;19.63;15.57;;;7.60;56.70;;;;;;5020517;28;20045;-76
2022/12/13 12:42:25;;;;;;;17.90;15.32;;;7.70;56.50;;;;;;5010455;28;20405;-77
2022/12/13 12:45:43;;;;;;;19.17;14.38;;;7.70;56.40;;;;;;5013660;28;20107;-74
2022/12/13 12:48:30;;;;;;;18.75;14.52;;;7.80;56.50;;;;;;5021882;28;20171;-75
2022/12/13 12:51:15;;;;;;;18.58;14.88;;;7.90;56.70;;;;;;5011382;28;20462;-75
2022/12/13 12:54:26;;;;;;;19.45;15.30;;;8.00;56.70;;;;;;5020521;28;20293;-76
2022/12/13 12:57:13;;;;;;;19.92;14.48;;;8.10;56.70;;;;;;5005220;28;20045;-77
2022/12/13 13:00:08;;;;;;;18.60;14.63;;;8.10;56.50;;;;;;4993118;28;20527;-74
2022/12/13 13:03:23;;;;;;;22.30;16.08;;;8.10;56.40;;;;;;5019780;28;20571;-74
2022/12/13 13:06:14;;;;;;;20.90;15.85;;;8.20;56.30;;;;;;5013317;28;20137;-75
2022/12/13 13:09:04;;;;;;;20.10;16.55;;;8.20;56.30;;;;;;4995488;28;20048;-74
2022/12/13 13:11:49;;;;;;;19.45;15.45;;;8.20;56.20;;;;;;5011066;28;20088;-75
2022/12/13 13:14:37;;;;;;;20.90;16.10;;;8.20;56.10;;;;;;5010315;28;20083;-75
2022/12/13 13:17:25;;;;;;;20.17;14.63;;;8.20;56.00;;;;;;5022509;28;20036;-75
2022/12/13 13:20:19;;;;;;;19.83;14.77;;;8.20;55.90;;;;;;5025697;28;20036;-75
2022/12/13 13:23:12;;;;;;;20.50;15.50;;;8.20;55.70;;;;;;5024756;28;20040;-75
2022/12/13 13:25:57;;;;;;;22.85;16.45;;;8.20;55.70;;;;;;5019373;28;20088;-75
2022/12/13 13:28:41;;;;;;;20.10;15.73;;;8.20;55.70;;;;;;5000495;28;20121;-75
2022/12/13 13:31:26;;;;;;;20.38;15.68;;;8.10;55.50;;;;;;5019301;28;20049;-75
2022/12/13 13:34:29;;;;;;;22.65;16.70;;;8.10;55.60;;;;;;5033787;28;20086;-74
2022/12/13 13:37:23;;;;;;;22.00;14.77;;;8.00;55.30;;;;;;5026198;28;20045;-75
2022/12/13 13:40:12;;;;;;;19.70;14.60;;;8.00;55.40;;;;;;5022970;28;20107;-75
2022/12/13 13:43:08;;;;;;;20.77;15.77;;;7.90;55.30;;;;;;5026171;28;20095;-76
2022/12/13 13:46:01;;;;;;;18.20;14.55;;;7.90;55.20;;;;;;5024531;28;20520;-76
2022/12/13 13:48:55;;;;;;;18.90;14.10;;;7.90;55.20;;;;;;5018559;28;20067;-76
2022/12/13 13:51:49;;;;;;;19.73;14.27;;;7.90;55.10;;;;;;5024677;28;20580;-75
2022/12/13 13:54:51;;;;;;;17.20;14.75;;;7.90;55.00;;;;;;5005256;28;20388;-75
2022/12/13 13:57:39;;;;;;;19.45;14.73;;;7.90;55.00;;;;;;5025292;28;20210;-73
2022/12/13 14:00:42;;;;;;;19.98;14.45;;;7.80;54.70;;;;;;5022683;28;20147;-75
2022/12/13 14:03:58;;;;;;;23.73;14.32;;;7.80;54.60;;;;;;5022030;28;20111;-75
2022/12/13 14:06:55;;;;;;;17.80;13.75;;;7.80;54.70;;;;;;5025495;28;20524;-75
2022/12/13 14:10:01;;;;;;;17.02;13.65;;;7.80;54.80;;;;;;5022396;28;20423;-75
2022/12/13 14:13:10;;;;;;;18.98;14.13;;;7.70;54.60;;;;;;5008863;28;20456;-76
2022/12/13 14:16:16;;;;;;;19.40;14.32;;;7.70;54.70;;;;;;5009186;28;20467;-76
2022/12/13 14:19:15;;;;;;;20.10;15.00;;;7.60;54.40;;;;;;5024746;28;20515;-75
2022/12/13 14:22:18;;;;;;;17.67;14.02;;;7.60;54.60;;;;;;5019312;28;20442;-75
2022/12/13 14:25:17;;;;;;;18.27;13.63;;;7.50;54.30;;;;;;5018390;28;20604;-75
2022/12/13 14:28:27;;;;;;;19.42;14.95;;;7.50;54.40;;;;;;4991773;28;20499;-74
2022/12/13 14:31:35;;;;;;;20.02;15.32;;;7.50;54.30;;;;;;5006498;28;20090;-75
2022/12/13 14:34:24;;;;;;;20.13;13.80;;;7.50;54.10;;;;;;5024393;28;20070;-75
2022/12/13 14:37:31;;;;;;;18.23;14.32;;;7.50;54.10;;;;;;5010390;28;20061;-74